sensor_id;sensor_type;location;lat;lon;timestamp;pressure;altitude;pressure_sealevel;temperature;humidity
16355;BME280;8287;51.644;8.494;2023-05-17T00:01:43;101028.56;;;11.04;75.52
16355;BME280;8287;51.644;8.494;2023-05-17T00:04:09;101037.38;;;11.00;75.69
16355;BME280;8287;51.644;8.494;2023-05-17T00:06:36;101037.38;;;11.00;75.98
16355;BME280;8287;51.644;8.494;2023-05-17T00:09:04;101039.47;;;11.03;74.74
16355;BME280;8287;51.644;8.494;2023-05-17T00:11:30;101033.09;;;11.04;74.94
16355;BME280;8287;51.644;8.494;2023-05-17T00:13:57;101033.66;;;11.01;75.17
16355;BME280;8287;51.644;8.494;2023-05-17T00:16:23;101036.41;;;10.96;75.67
16355;BME280;8287;51.644;8.494;2023-05-17T00:18:50;101043.19;;;11.02;75.60
16355;BME280;8287;51.644;8.494;2023-05-17T00:21:17;101031.38;;;10.94;75.91
16355;BME280;8287;51.644;8.494;2023-05-17T00:23:43;101029.09;;;10.88;76.22
16355;BME280;8287;51.644;8.494;2023-05-17T00:26:11;101031.03;;;10.82;76.02
16355;BME280;8287;51.644;8.494;2023-05-17T00:28:38;101039.28;;;10.81;76.94
16355;BME280;8287;51.644;8.494;2023-05-17T00:31:05;101027.66;;;10.77;76.88
16355;BME280;8287;51.644;8.494;2023-05-17T00:33:32;101027.16;;;10.75;77.06
16355;BME280;8287;51.644;8.494;2023-05-17T00:35:58;101027.75;;;10.72;77.28
16355;BME280;8287;51.644;8.494;2023-05-17T00:38:25;101027.53;;;10.50;78.46
16355;BME280;8287;51.644;8.494;2023-05-17T00:40:51;101037.78;;;10.56;78.21
16355;BME280;8287;51.644;8.494;2023-05-17T00:43:19;101030.47;;;10.48;79.00
16355;BME280;8287;51.644;8.494;2023-05-17T00:45:46;101041.91;;;10.62;78.39
16355;BME280;8287;51.644;8.494;2023-05-17T00:48:14;101041.03;;;10.30;80.33
16355;BME280;8287;51.644;8.494;2023-05-17T00:50:41;101036.97;;;10.19;81.96
16355;BME280;8287;51.644;8.494;2023-05-17T00:53:08;101043.41;;;10.31;81.43
16355;BME280;8287;51.644;8.494;2023-05-17T00:55:35;101036.50;;;10.54;79.59
16355;BME280;8287;51.644;8.494;2023-05-17T00:58:02;101045.44;;;10.58;79.22
16355;BME280;8287;51.644;8.494;2023-05-17T01:00:30;101037.63;;;10.66;78.65
16355;BME280;8287;51.644;8.494;2023-05-17T01:02:57;101046.09;;;10.68;78.40
16355;BME280;8287;51.644;8.494;2023-05-17T01:05:24;101050.03;;;10.71;78.45
16355;BME280;8287;51.644;8.494;2023-05-17T01:07:52;101044.34;;;10.77;77.46
16355;BME280;8287;51.644;8.494;2023-05-17T01:10:19;101049.38;;;10.79;77.24
16355;BME280;8287;51.644;8.494;2023-05-17T01:12:55;101046.22;;;10.77;77.88
16355;BME280;8287;51.644;8.494;2023-05-17T01:15:26;101051.00;;;10.75;78.07
16355;BME280;8287;51.644;8.494;2023-05-17T01:17:59;101048.09;;;10.76;78.26
16355;BME280;8287;51.644;8.494;2023-05-17T01:20:35;101051.00;;;10.75;77.96
16355;BME280;8287;51.644;8.494;2023-05-17T01:23:19;101038.34;;;10.72;78.14
16355;BME280;8287;51.644;8.494;2023-05-17T01:26:05;101049.44;;;10.74;78.12
16355;BME280;8287;51.644;8.494;2023-05-17T01:28:36;101047.38;;;10.71;78.60
16355;BME280;8287;51.644;8.494;2023-05-17T01:31:04;101049.22;;;10.70;78.71
16355;BME280;8287;51.644;8.494;2023-05-17T01:33:32;101047.16;;;10.67;78.92
16355;BME280;8287;51.644;8.494;2023-05-17T01:36:00;101052.19;;;10.69;78.89
16355;BME280;8287;51.644;8.494;2023-05-17T01:38:26;101060.41;;;10.67;79.03
16355;BME280;8287;51.644;8.494;2023-05-17T01:40:55;101059.63;;;10.67;78.66
16355;BME280;8287;51.644;8.494;2023-05-17T01:43:30;101058.75;;;10.53;79.53
16355;BME280;8287;51.644;8.494;2023-05-17T01:46:07;101060.56;;;10.57;79.43
16355;BME280;8287;51.644;8.494;2023-05-17T01:48:39;101042.44;;;10.46;80.06
16355;BME280;8287;51.644;8.494;2023-05-17T01:51:10;101052.09;;;10.37;80.75
16355;BME280;8287;51.644;8.494;2023-05-17T01:53:45;101070.41;;;10.33;81.34
16355;BME280;8287;51.644;8.494;2023-05-17T01:56:15;101066.78;;;10.48;80.62
16355;BME280;8287;51.644;8.494;2023-05-17T01:58:46;101074.34;;;10.54;80.06
16355;BME280;8287;51.644;8.494;2023-05-17T02:01:15;101074.66;;;10.53;80.53
16355;BME280;8287;51.644;8.494;2023-05-17T02:03:46;101078.66;;;10.50;81.11
16355;BME280;8287;51.644;8.494;2023-05-17T02:06:13;101079.16;;;10.52;81.23
16355;BME280;8287;51.644;8.494;2023-05-17T02:08:39;101085.75;;;10.55;80.70
16355;BME280;8287;51.644;8.494;2023-05-17T02:11:06;101085.53;;;10.51;81.17
16355;BME280;8287;51.644;8.494;2023-05-17T02:13:33;101091.34;;;10.53;81.16
16355;BME280;8287;51.644;8.494;2023-05-17T02:16:00;101091.41;;;10.48;81.61
16355;BME280;8287;51.644;8.494;2023-05-17T02:18:27;101089.47;;;10.54;80.83
16355;BME280;8287;51.644;8.494;2023-05-17T02:20:54;101084.19;;;10.54;81.05
16355;BME280;8287;51.644;8.494;2023-05-17T02:23:21;101092.41;;;10.52;81.22
16355;BME280;8287;51.644;8.494;2023-05-17T02:25:49;101085.25;;;10.53;80.74
16355;BME280;8287;51.644;8.494;2023-05-17T02:28:15;101086.38;;;10.47;81.45
16355;BME280;8287;51.644;8.494;2023-05-17T02:30:42;101089.09;;;10.42;82.12
16355;BME280;8287;51.644;8.494;2023-05-17T02:33:10;101086.16;;;10.43;81.74
16355;BME280;8287;51.644;8.494;2023-05-17T02:35:38;101085.59;;;10.46;81.64
16355;BME280;8287;51.644;8.494;2023-05-17T02:38:04;101091.25;;;10.40;82.12
16355;BME280;8287;51.644;8.494;2023-05-17T02:40:31;101085.91;;;10.45;82.36
16355;BME280;8287;51.644;8.494;2023-05-17T02:42:57;101090.25;;;10.36;82.27
16355;BME280;8287;51.644;8.494;2023-05-17T02:45:24;101091.75;;;10.42;82.60
16355;BME280;8287;51.644;8.494;2023-05-17T02:47:51;101086.22;;;10.38;82.36
16355;BME280;8287;51.644;8.494;2023-05-17T02:50:17;101095.97;;;10.43;82.22
16355;BME280;8287;51.644;8.494;2023-05-17T02:52:45;101099.41;;;10.43;82.90
16355;BME280;8287;51.644;8.494;2023-05-17T02:55:11;101101.25;;;10.43;83.36
16355;BME280;8287;51.644;8.494;2023-05-17T02:57:38;101094.13;;;10.43;83.20
16355;BME280;8287;51.644;8.494;2023-05-17T03:00:06;101097.47;;;10.49;83.27
16355;BME280;8287;51.644;8.494;2023-05-17T03:02:34;101095.41;;;10.46;83.46
16355;BME280;8287;51.644;8.494;2023-05-17T03:05:01;101086.97;;;10.44;84.14
16355;BME280;8287;51.644;8.494;2023-05-17T03:07:27;101091.91;;;10.50;83.63
16355;BME280;8287;51.644;8.494;2023-05-17T03:09:55;101100.94;;;10.49;83.64
16355;BME280;8287;51.644;8.494;2023-05-17T03:12:22;101097.03;;;10.42;84.16
16355;BME280;8287;51.644;8.494;2023-05-17T03:14:48;101101.84;;;10.40;84.55
16355;BME280;8287;51.644;8.494;2023-05-17T03:17:15;101096.31;;;10.36;85.08
16355;BME280;8287;51.644;8.494;2023-05-17T03:19:41;101101.56;;;10.41;84.77
16355;BME280;8287;51.644;8.494;2023-05-17T03:22:08;101104.03;;;10.33;85.69
16355;BME280;8287;51.644;8.494;2023-05-17T03:24:35;101112.34;;;10.26;86.09
16355;BME280;8287;51.644;8.494;2023-05-17T03:27:03;101111.22;;;10.32;85.56
16355;BME280;8287;51.644;8.494;2023-05-17T03:29:29;101111.44;;;10.36;85.22
16355;BME280;8287;51.644;8.494;2023-05-17T03:31:56;101109.91;;;10.30;86.03
16355;BME280;8287;51.644;8.494;2023-05-17T03:34:23;101131.31;;;10.33;85.69
16355;BME280;8287;51.644;8.494;2023-05-17T03:36:49;101124.28;;;10.24;86.56
16355;BME280;8287;51.644;8.494;2023-05-17T03:39:16;101121.13;;;10.22;86.93
16355;BME280;8287;51.644;8.494;2023-05-17T03:41:42;101129.69;;;10.14;87.07
16355;BME280;8287;51.644;8.494;2023-05-17T03:44:10;101124.72;;;10.07;87.81
16355;BME280;8287;51.644;8.494;2023-05-17T03:46:37;101125.25;;;10.09;87.42
16355;BME280;8287;51.644;8.494;2023-05-17T03:49:03;101131.59;;;10.08;87.99
16355;BME280;8287;51.644;8.494;2023-05-17T03:51:31;101125.00;;;10.06;88.27
16355;BME280;8287;51.644;8.494;2023-05-17T03:53:59;101136.81;;;10.13;87.51
16355;BME280;8287;51.644;8.494;2023-05-17T03:56:25;101141.28;;;10.18;87.76
16355;BME280;8287;51.644;8.494;2023-05-17T03:58:52;101144.97;;;10.22;87.56
16355;BME280;8287;51.644;8.494;2023-05-17T04:01:20;101141.28;;;10.18;87.76
16355;BME280;8287;51.644;8.494;2023-05-17T04:03:47;101138.09;;;10.21;87.64
16355;BME280;8287;51.644;8.494;2023-05-17T04:06:13;101142.31;;;10.22;87.78
16355;BME280;8287;51.644;8.494;2023-05-17T04:08:40;101146.56;;;10.18;88.22
16355;BME280;8287;51.644;8.494;2023-05-17T04:11:07;101150.25;;;10.22;87.02
16355;BME280;8287;51.644;8.494;2023-05-17T04:13:37;101147.34;;;10.23;87.20
16355;BME280;8287;51.644;8.494;2023-05-17T04:16:05;101156.06;;;10.24;87.14
16355;BME280;8287;51.644;8.494;2023-05-17T04:18:34;101149.19;;;10.23;86.59
16355;BME280;8287;51.644;8.494;2023-05-17T04:21:01;101158.09;;;10.32;86.34
16355;BME280;8287;51.644;8.494;2023-05-17T04:23:27;101162.09;;;10.29;86.54
16355;BME280;8287;51.644;8.494;2023-05-17T04:25:54;101168.47;;;10.28;86.86
16355;BME280;8287;51.644;8.494;2023-05-17T04:28:22;101167.09;;;10.31;86.67
16355;BME280;8287;51.644;8.494;2023-05-17T04:30:48;101168.94;;;10.30;86.36
16355;BME280;8287;51.644;8.494;2023-05-17T04:33:15;101172.41;;;10.31;86.70
16355;BME280;8287;51.644;8.494;2023-05-17T04:35:43;101174.56;;;10.29;86.41
16355;BME280;8287;51.644;8.494;2023-05-17T04:38:09;101176.13;;;10.30;87.21
16355;BME280;8287;51.644;8.494;2023-05-17T04:40:36;101182.44;;;10.34;86.63
16355;BME280;8287;51.644;8.494;2023-05-17T04:43:03;101188.31;;;10.31;87.00
16355;BME280;8287;51.644;8.494;2023-05-17T04:45:29;101185.69;;;10.26;87.37
16355;BME280;8287;51.644;8.494;2023-05-17T04:47:57;101190.81;;;10.17;88.07
16355;BME280;8287;51.644;8.494;2023-05-17T04:50:24;101195.84;;;10.19;87.51
16355;BME280;8287;51.644;8.494;2023-05-17T04:52:52;101194.78;;;10.20;87.26
16355;BME280;8287;51.644;8.494;2023-05-17T04:55:19;101206.44;;;10.19;87.75
16355;BME280;8287;51.644;8.494;2023-05-17T04:57:45;101206.69;;;10.22;88.05
16355;BME280;8287;51.644;8.494;2023-05-17T05:00:13;101212.97;;;10.26;87.74
16355;BME280;8287;51.644;8.494;2023-05-17T05:02:40;101218.28;;;10.26;87.72
16355;BME280;8287;51.644;8.494;2023-05-17T05:05:07;101214.56;;;10.27;88.14
16355;BME280;8287;51.644;8.494;2023-05-17T05:07:35;101218.44;;;10.35;87.29
16355;BME280;8287;51.644;8.494;2023-05-17T05:10:06;101215.28;;;10.33;87.70
16355;BME280;8287;51.644;8.494;2023-05-17T05:12:33;101217.41;;;10.36;88.17
16355;BME280;8287;51.644;8.494;2023-05-17T05:14:59;101225.28;;;10.41;88.55
16355;BME280;8287;51.644;8.494;2023-05-17T05:17:26;101223.13;;;10.43;89.20
16355;BME280;8287;51.644;8.494;2023-05-17T05:19:52;101230.53;;;10.46;88.90
16355;BME280;8287;51.644;8.494;2023-05-17T05:22:19;101230.53;;;10.46;88.88
16355;BME280;8287;51.644;8.494;2023-05-17T05:24:45;101226.78;;;10.52;89.21
16355;BME280;8287;51.644;8.494;2023-05-17T05:27:13;101234.06;;;10.60;88.17
16355;BME280;8287;51.644;8.494;2023-05-17T05:29:40;101239.09;;;10.61;89.12
16355;BME280;8287;51.644;8.494;2023-05-17T05:32:07;101235.06;;;10.69;89.03
16355;BME280;8287;51.644;8.494;2023-05-17T05:34:34;101251.47;;;10.71;89.21
16355;BME280;8287;51.644;8.494;2023-05-17T05:37:00;101252.19;;;10.76;89.24
16355;BME280;8287;51.644;8.494;2023-05-17T05:39:27;101240.16;;;10.84;89.02
16355;BME280;8287;51.644;8.494;2023-05-17T05:41:53;101250.22;;;10.87;88.66
16355;BME280;8287;51.644;8.494;2023-05-17T05:44:21;101246.19;;;10.89;88.63
16355;BME280;8287;51.644;8.494;2023-05-17T05:46:48;101249.88;;;10.93;88.56
16355;BME280;8287;51.644;8.494;2023-05-17T05:49:14;101250.81;;;11.02;87.91
16355;BME280;8287;51.644;8.494;2023-05-17T05:51:41;101252.13;;;11.05;87.83
16355;BME280;8287;51.644;8.494;2023-05-17T05:54:08;101264.16;;;11.16;86.88
16355;BME280;8287;51.644;8.494;2023-05-17T05:56:34;101272.31;;;11.24;86.34
16355;BME280;8287;51.644;8.494;2023-05-17T05:59:01;101264.25;;;11.29;86.55
16355;BME280;8287;51.644;8.494;2023-05-17T06:01:29;101266.50;;;11.41;86.35
16355;BME280;8287;51.644;8.494;2023-05-17T06:03:56;101272.81;;;11.45;85.56
16355;BME280;8287;51.644;8.494;2023-05-17T06:06:22;101270.09;;;11.50;84.56
16355;BME280;8287;51.644;8.494;2023-05-17T06:08:49;101276.69;;;11.52;84.01
16355;BME280;8287;51.644;8.494;2023-05-17T06:11:17;101280.63;;;11.55;83.15
16355;BME280;8287;51.644;8.494;2023-05-17T06:13:44;101280.25;;;11.66;83.51
16355;BME280;8287;51.644;8.494;2023-05-17T06:16:11;101281.00;;;11.67;82.94
16355;BME280;8287;51.644;8.494;2023-05-17T06:18:39;101287.78;;;11.78;82.33
16355;BME280;8287;51.644;8.494;2023-05-17T06:21:05;101290.13;;;11.79;81.96
16355;BME280;8287;51.644;8.494;2023-05-17T06:23:32;101295.59;;;11.88;80.53
16355;BME280;8287;51.644;8.494;2023-05-17T06:25:58;101299.44;;;11.95;80.96
16355;BME280;8287;51.644;8.494;2023-05-17T06:28:25;101298.94;;;11.93;81.34
16355;BME280;8287;51.644;8.494;2023-05-17T06:30:52;101306.53;;;12.00;81.13
16355;BME280;8287;51.644;8.494;2023-05-17T06:33:19;101303.00;;;12.04;80.88
16355;BME280;8287;51.644;8.494;2023-05-17T06:35:46;101290.31;;;12.01;80.05
16355;BME280;8287;51.644;8.494;2023-05-17T06:38:13;101303.50;;;12.06;80.71
16355;BME280;8287;51.644;8.494;2023-05-17T06:40:40;101303.44;;;12.11;80.90
16355;BME280;8287;51.644;8.494;2023-05-17T06:43:06;101309.19;;;12.00;80.76
16355;BME280;8287;51.644;8.494;2023-05-17T06:45:33;101312.59;;;12.19;80.56
16355;BME280;8287;51.644;8.494;2023-05-17T06:47:59;101304.53;;;12.10;78.71
16355;BME280;8287;51.644;8.494;2023-05-17T06:50:26;101310.00;;;11.63;80.44
16355;BME280;8287;51.644;8.494;2023-05-17T06:52:54;101308.00;;;11.92;80.18
16355;BME280;8287;51.644;8.494;2023-05-17T06:55:21;101311.94;;;11.76;80.03
16355;BME280;8287;51.644;8.494;2023-05-17T06:57:47;101322.00;;;11.61;79.23
16355;BME280;8287;51.644;8.494;2023-05-17T07:00:14;101314.88;;;12.12;77.71
16355;BME280;8287;51.644;8.494;2023-05-17T07:02:41;101319.13;;;11.94;78.21
16355;BME280;8287;51.644;8.494;2023-05-17T07:05:08;101319.75;;;12.05;79.85
16355;BME280;8287;51.644;8.494;2023-05-17T07:07:34;101323.16;;;12.24;79.48
16355;BME280;8287;51.644;8.494;2023-05-17T07:10:03;101326.75;;;12.14;78.42
16355;BME280;8287;51.644;8.494;2023-05-17T07:12:30;101334.56;;;12.56;78.05
16355;BME280;8287;51.644;8.494;2023-05-17T07:14:56;101330.94;;;12.66;78.21
16355;BME280;8287;51.644;8.494;2023-05-17T07:17:23;101331.56;;;12.90;74.43
16355;BME280;8287;51.644;8.494;2023-05-17T07:19:49;101333.97;;;12.46;75.29
16355;BME280;8287;51.644;8.494;2023-05-17T07:22:16;101335.84;;;12.59;75.04
16355;BME280;8287;51.644;8.494;2023-05-17T07:24:43;101329.88;;;12.80;76.29
16355;BME280;8287;51.644;8.494;2023-05-17T07:27:11;101337.34;;;13.23;73.04
16355;BME280;8287;51.644;8.494;2023-05-17T07:29:38;101329.25;;;13.28;71.75
16355;BME280;8287;51.644;8.494;2023-05-17T07:32:06;101339.97;;;13.50;70.28
16355;BME280;8287;51.644;8.494;2023-05-17T07:34:33;101337.34;;;13.23;70.74
16355;BME280;8287;51.644;8.494;2023-05-17T07:37:00;101343.03;;;13.44;70.92
16355;BME280;8287;51.644;8.494;2023-05-17T07:39:27;101339.88;;;13.55;67.16
16355;BME280;8287;51.644;8.494;2023-05-17T07:41:53;101343.22;;;13.47;65.53
16355;BME280;8287;51.644;8.494;2023-05-17T07:44:21;101358.34;;;13.25;67.22
16355;BME280;8287;51.644;8.494;2023-05-17T07:46:48;101359.69;;;12.96;67.25
16355;BME280;8287;51.644;8.494;2023-05-17T07:49:15;101358.22;;;13.03;67.30
16355;BME280;8287;51.644;8.494;2023-05-17T07:51:42;101355.66;;;13.38;66.05
16355;BME280;8287;51.644;8.494;2023-05-17T07:54:13;101360.84;;;13.57;61.29
16355;BME280;8287;51.644;8.494;2023-05-17T07:56:47;101360.66;;;13.67;62.46
16355;BME280;8287;51.644;8.494;2023-05-17T07:59:13;101355.81;;;14.04;63.91
16355;BME280;8287;51.644;8.494;2023-05-17T08:01:41;101363.41;;;14.55;63.18
16355;BME280;8287;51.644;8.494;2023-05-17T08:04:08;101364.03;;;13.94;61.93
16355;BME280;8287;51.644;8.494;2023-05-17T08:06:34;101377.94;;;13.91;60.84
16355;BME280;8287;51.644;8.494;2023-05-17T08:09:01;101375.19;;;13.96;61.00
16355;BME280;8287;51.644;8.494;2023-05-17T08:11:28;101376.44;;;13.99;60.13
16355;BME280;8287;51.644;8.494;2023-05-17T08:13:58;101379.13;;;13.85;56.14
16355;BME280;8287;51.644;8.494;2023-05-17T08:16:25;101390.34;;;13.33;58.78
16355;BME280;8287;51.644;8.494;2023-05-17T08:18:53;101381.94;;;13.80;61.26
16355;BME280;8287;51.644;8.494;2023-05-17T08:21:20;101386.84;;;13.87;60.34
16355;BME280;8287;51.644;8.494;2023-05-17T08:23:46;101391.34;;;13.51;58.31
16355;BME280;8287;51.644;8.494;2023-05-17T08:26:13;101386.41;;;13.58;59.62
16355;BME280;8287;51.644;8.494;2023-05-17T08:28:39;101379.38;;;13.75;60.10
16355;BME280;8287;51.644;8.494;2023-05-17T08:31:06;101379.81;;;14.04;58.82
16355;BME280;8287;51.644;8.494;2023-05-17T08:33:33;101371.09;;;14.12;57.95
16355;BME280;8287;51.644;8.494;2023-05-17T08:36:02;101381.06;;;14.07;57.23
16355;BME280;8287;51.644;8.494;2023-05-17T08:38:32;101382.63;;;14.21;56.63
16355;BME280;8287;51.644;8.494;2023-05-17T08:40:59;101386.91;;;14.09;57.46
16355;BME280;8287;51.644;8.494;2023-05-17T08:43:29;101383.38;;;13.86;58.42
16355;BME280;8287;51.644;8.494;2023-05-17T08:45:56;101382.47;;;13.91;59.41
16355;BME280;8287;51.644;8.494;2023-05-17T08:48:23;101388.88;;;14.03;59.96
16355;BME280;8287;51.644;8.494;2023-05-17T08:50:53;101385.38;;;13.81;61.25
16355;BME280;8287;51.644;8.494;2023-05-17T08:53:23;101395.78;;;13.28;58.89
16355;BME280;8287;51.644;8.494;2023-05-17T08:55:54;101390.34;;;13.47;60.32
16355;BME280;8287;51.644;8.494;2023-05-17T08:58:26;101398.34;;;13.33;57.34
16355;BME280;8287;51.644;8.494;2023-05-17T09:00:54;101385.72;;;13.52;59.93
16355;BME280;8287;51.644;8.494;2023-05-17T09:03:22;101380.69;;;14.35;57.55
16355;BME280;8287;51.644;8.494;2023-05-17T09:05:49;101382.25;;;14.80;57.88
16355;BME280;8287;51.644;8.494;2023-05-17T09:08:17;101379.25;;;14.82;52.70
16355;BME280;8287;51.644;8.494;2023-05-17T09:10:46;101397.94;;;14.02;54.16
16355;BME280;8287;51.644;8.494;2023-05-17T09:13:12;101398.78;;;13.89;55.71
16355;BME280;8287;51.644;8.494;2023-05-17T09:15:41;101402.75;;;14.14;53.54
16355;BME280;8287;51.644;8.494;2023-05-17T09:18:09;101408.84;;;14.50;55.47
16355;BME280;8287;51.644;8.494;2023-05-17T09:20:36;101399.94;;;14.76;52.01
16355;BME280;8287;51.644;8.494;2023-05-17T09:23:05;101395.66;;;14.67;50.60
16355;BME280;8287;51.644;8.494;2023-05-17T09:25:34;101399.59;;;14.47;52.51
16355;BME280;8287;51.644;8.494;2023-05-17T09:28:04;101392.28;;;14.53;53.16
16355;BME280;8287;51.644;8.494;2023-05-17T09:30:34;101392.56;;;14.73;51.73
16355;BME280;8287;51.644;8.494;2023-05-17T09:33:04;101386.06;;;15.27;50.53
16355;BME280;8287;51.644;8.494;2023-05-17T09:35:31;101391.19;;;15.54;48.44
16355;BME280;8287;51.644;8.494;2023-05-17T09:38:05;101379.50;;;15.02;48.60
16355;BME280;8287;51.644;8.494;2023-05-17T09:40:32;101388.50;;;15.06;48.12
16355;BME280;8287;51.644;8.494;2023-05-17T09:42:59;101382.50;;;15.40;51.11
16355;BME280;8287;51.644;8.494;2023-05-17T09:45:27;101387.88;;;15.48;50.20
16355;BME280;8287;51.644;8.494;2023-05-17T09:47:53;101385.16;;;14.70;49.54
16355;BME280;8287;51.644;8.494;2023-05-17T09:50:20;101394.03;;;14.57;50.37
16355;BME280;8287;51.644;8.494;2023-05-17T09:52:47;101385.28;;;14.43;51.56
16355;BME280;8287;51.644;8.494;2023-05-17T09:55:13;101395.59;;;14.58;53.08
16355;BME280;8287;51.644;8.494;2023-05-17T09:57:40;101396.69;;;14.35;51.97
16355;BME280;8287;51.644;8.494;2023-05-17T10:00:08;101400.13;;;14.58;50.63
16355;BME280;8287;51.644;8.494;2023-05-17T10:02:38;101394.88;;;14.66;50.73
16355;BME280;8287;51.644;8.494;2023-05-17T10:05:09;101404.72;;;14.22;53.62
16355;BME280;8287;51.644;8.494;2023-05-17T10:07:36;101394.84;;;14.88;51.15
16355;BME280;8287;51.644;8.494;2023-05-17T10:10:04;101398.53;;;15.09;50.27
16355;BME280;8287;51.644;8.494;2023-05-17T10:12:32;101399.00;;;15.11;49.30
16355;BME280;8287;51.644;8.494;2023-05-17T10:15:00;101397.13;;;15.34;48.48
16355;BME280;8287;51.644;8.494;2023-05-17T10:17:27;101394.59;;;15.07;50.66
16355;BME280;8287;51.644;8.494;2023-05-17T10:19:57;101398.41;;;15.14;48.83
16355;BME280;8287;51.644;8.494;2023-05-17T10:22:25;101413.66;;;14.39;46.96
16355;BME280;8287;51.644;8.494;2023-05-17T10:24:54;101408.28;;;15.05;49.02
16355;BME280;8287;51.644;8.494;2023-05-17T10:27:22;101399.72;;;15.25;49.36
16355;BME280;8287;51.644;8.494;2023-05-17T10:29:51;101400.44;;;15.09;48.44
16355;BME280;8287;51.644;8.494;2023-05-17T10:32:20;101397.22;;;15.68;47.69
16355;BME280;8287;51.644;8.494;2023-05-17T10:34:50;101397.38;;;15.80;46.27
16355;BME280;8287;51.644;8.494;2023-05-17T10:37:20;101393.34;;;15.43;43.72
16355;BME280;8287;51.644;8.494;2023-05-17T10:39:47;101395.09;;;15.48;48.65
16355;BME280;8287;51.644;8.494;2023-05-17T10:42:16;101394.06;;;15.83;48.63
16355;BME280;8287;51.644;8.494;2023-05-17T10:44:44;101392.66;;;16.02;47.79
16355;BME280;8287;51.644;8.494;2023-05-17T10:47:13;101392.34;;;15.95;46.59
16355;BME280;8287;51.644;8.494;2023-05-17T10:49:43;101397.69;;;15.78;43.54
16355;BME280;8287;51.644;8.494;2023-05-17T10:52:12;101398.56;;;15.48;45.71
16355;BME280;8287;51.644;8.494;2023-05-17T10:54:42;101382.66;;;14.74;47.62
16355;BME280;8287;51.644;8.494;2023-05-17T10:57:18;101379.41;;;15.55;48.17
16355;BME280;8287;51.644;8.494;2023-05-17T10:59:56;101380.41;;;15.84;47.82
16355;BME280;8287;51.644;8.494;2023-05-17T11:02:24;101399.81;;;15.42;46.54
16355;BME280;8287;51.644;8.494;2023-05-17T11:04:51;101394.88;;;14.97;49.22
16355;BME280;8287;51.644;8.494;2023-05-17T11:07:25;101387.00;;;15.22;51.53
16355;BME280;8287;51.644;8.494;2023-05-17T11:10:00;101385.91;;;15.88;49.37
16355;BME280;8287;51.644;8.494;2023-05-17T11:12:32;101383.84;;;15.76;47.16
16355;BME280;8287;51.644;8.494;2023-05-17T11:15:03;101384.81;;;15.89;48.18
16355;BME280;8287;51.644;8.494;2023-05-17T11:17:34;101385.59;;;16.32;44.45
16355;BME280;8287;51.644;8.494;2023-05-17T11:20:03;101382.16;;;16.31;43.58
16355;BME280;8287;51.644;8.494;2023-05-17T11:22:39;101383.06;;;16.35;47.08
16355;BME280;8287;51.644;8.494;2023-05-17T11:25:09;101377.56;;;16.49;45.89
16355;BME280;8287;51.644;8.494;2023-05-17T11:27:42;101388.44;;;15.93;47.15
16355;BME280;8287;51.644;8.494;2023-05-17T11:30:15;101387.34;;;15.94;47.18
16355;BME280;8287;51.644;8.494;2023-05-17T11:32:47;101384.34;;;16.12;45.50
16355;BME280;8287;51.644;8.494;2023-05-17T11:35:15;101380.63;;;16.84;46.51
16355;BME280;8287;51.644;8.494;2023-05-17T11:37:42;101385.91;;;17.10;45.98
16355;BME280;8287;51.644;8.494;2023-05-17T11:40:11;101385.66;;;16.94;45.17
16355;BME280;8287;51.644;8.494;2023-05-17T11:42:39;101375.00;;;16.77;43.20
16355;BME280;8287;51.644;8.494;2023-05-17T11:45:06;101391.38;;;15.83;46.17
16355;BME280;8287;51.644;8.494;2023-05-17T11:47:40;101402.13;;;16.42;43.24
16355;BME280;8287;51.644;8.494;2023-05-17T11:50:09;101384.34;;;16.55;44.35
16355;BME280;8287;51.644;8.494;2023-05-17T11:52:42;101382.44;;;16.72;44.66
16355;BME280;8287;51.644;8.494;2023-05-17T11:55:14;101385.53;;;17.20;45.00
16355;BME280;8287;51.644;8.494;2023-05-17T11:57:41;101380.91;;;17.00;42.15
16355;BME280;8287;51.644;8.494;2023-05-17T12:00:10;101382.13;;;15.89;42.56
16355;BME280;8287;51.644;8.494;2023-05-17T12:02:37;101381.38;;;16.39;43.75
16355;BME280;8287;51.644;8.494;2023-05-17T12:05:04;101379.44;;;17.11;43.91
16355;BME280;8287;51.644;8.494;2023-05-17T12:07:33;101377.56;;;17.11;42.70
16355;BME280;8287;51.644;8.494;2023-05-17T12:09:59;101378.19;;;16.63;43.62
16355;BME280;8287;51.644;8.494;2023-05-17T12:12:27;101378.00;;;16.67;42.55
16355;BME280;8287;51.644;8.494;2023-05-17T12:14:54;101382.94;;;16.23;45.28
16355;BME280;8287;51.644;8.494;2023-05-17T12:17:28;101387.13;;;15.65;47.07
16355;BME280;8287;51.644;8.494;2023-05-17T12:20:05;101383.09;;;16.27;44.10
16355;BME280;8287;51.644;8.494;2023-05-17T12:22:32;101375.22;;;16.39;44.29
16355;BME280;8287;51.644;8.494;2023-05-17T12:24:59;101385.09;;;16.72;41.69
16355;BME280;8287;51.644;8.494;2023-05-17T12:27:28;101386.13;;;16.88;43.72
16355;BME280;8287;51.644;8.494;2023-05-17T12:29:55;101393.13;;;16.21;42.67
16355;BME280;8287;51.644;8.494;2023-05-17T12:32:22;101393.22;;;15.57;45.22
16355;BME280;8287;51.644;8.494;2023-05-17T12:34:49;101386.41;;;15.98;46.25
16355;BME280;8287;51.644;8.494;2023-05-17T12:37:16;101390.63;;;16.67;45.77
16355;BME280;8287;51.644;8.494;2023-05-17T12:39:43;101392.28;;;16.80;42.72
16355;BME280;8287;51.644;8.494;2023-05-17T12:42:09;101387.03;;;17.00;43.45
16355;BME280;8287;51.644;8.494;2023-05-17T12:44:38;101403.00;;;16.80;42.60
16355;BME280;8287;51.644;8.494;2023-05-17T12:47:04;101395.22;;;17.04;43.25
16355;BME280;8287;51.644;8.494;2023-05-17T12:49:36;101388.44;;;17.73;41.61
16355;BME280;8287;51.644;8.494;2023-05-17T12:52:04;101390.81;;;17.95;41.73
16355;BME280;8287;51.644;8.494;2023-05-17T12:54:31;101391.56;;;17.17;40.88
16355;BME280;8287;51.644;8.494;2023-05-17T12:57:08;101396.94;;;17.08;42.49
16355;BME280;8287;51.644;8.494;2023-05-17T12:59:46;101387.16;;;17.50;42.43
16355;BME280;8287;51.644;8.494;2023-05-17T13:02:14;101390.16;;;17.48;42.65
16355;BME280;8287;51.644;8.494;2023-05-17T13:04:40;101396.91;;;17.54;44.21